sensor_id;sensor_type;location;lat;lon;timestamp;pressure;altitude;pressure_sealevel;temperature;humidity
68145;BME280;55400;51.824;-0.196;2023-02-07T00:01:50;102901.0;;;1.76;67.17
68145;BME280;55400;51.824;-0.196;2023-02-07T00:05:50;102901.0;;;1.69;67.17
68145;BME280;55400;51.824;-0.196;2023-02-07T00:09:50;102899.57999999999;;;1.61;67.16
68145;BME280;55400;51.824;-0.196;2023-02-07T00:13:51;102899.57999999999;;;1.56;67.29
68145;BME280;55400;51.824;-0.196;2023-02-07T00:17:50;102896.89000000001;;;1.54;67.46
68145;BME280;55400;51.824;-0.196;2023-02-07T00:21:50;102896.89000000001;;;1.55;67.47
68145;BME280;55400;51.824;-0.196;2023-02-07T00:25:50;102900.72;;;1.54;67.50
68145;BME280;55400;51.824;-0.196;2023-02-07T00:29:50;102900.84;;;1.49;67.43
68145;BME280;55400;51.824;-0.196;2023-02-07T00:33:52;102895.39;;;1.44;67.50
68145;BME280;55400;51.824;-0.196;2023-02-07T00:37:50;102889.23;;;1.41;67.57
68145;BME280;55400;51.824;-0.196;2023-02-07T00:41:50;102883.20000000001;;;1.37;67.56
68145;BME280;55400;51.824;-0.196;2023-02-07T00:45:50;102879.53;;;1.36;67.56
68145;BME280;55400;51.824;-0.196;2023-02-07T00:49:50;102875.33;;;1.32;67.65
68145;BME280;55400;51.824;-0.196;2023-02-07T00:53:50;102875.33;;;1.27;67.59
68145;BME280;55400;51.824;-0.196;2023-02-07T00:57:50;102877.05;;;1.25;67.71
68145;BME280;55400;51.824;-0.196;2023-02-07T01:01:50;102878.8;;;1.22;67.75
68145;BME280;55400;51.824;-0.196;2023-02-07T01:05:50;102878.8;;;1.19;67.71
68145;BME280;55400;51.824;-0.196;2023-02-07T01:09:50;102877.64;;;1.12;67.73
68145;BME280;55400;51.824;-0.196;2023-02-07T01:13:50;102876.33;;;1.06;67.69
68145;BME280;55400;51.824;-0.196;2023-02-07T01:17:50;102879.81;;;1.01;67.80
68145;BME280;55400;51.824;-0.196;2023-02-07T01:21:50;102875.6;;;0.98;67.91
68145;BME280;55400;51.824;-0.196;2023-02-07T01:25:50;102872.8;;;0.94;68.04
68145;BME280;55400;51.824;-0.196;2023-02-07T01:29:50;102877.47;;;0.93;68.11
68145;BME280;55400;51.824;-0.196;2023-02-07T01:33:52;102881.90999999999;;;0.91;68.03
68145;BME280;55400;51.824;-0.196;2023-02-07T01:37:50;102881.90999999999;;;0.88;68.10
68145;BME280;55400;51.824;-0.196;2023-02-07T01:41:51;102880.96;;;0.87;68.21
68145;BME280;55400;51.824;-0.196;2023-02-07T01:45:51;102882.42;;;0.86;68.34
68145;BME280;55400;51.824;-0.196;2023-02-07T01:49:51;102882.42;;;0.85;68.34
68145;BME280;55400;51.824;-0.196;2023-02-07T01:53:51;102890.34;;;0.82;68.41
68145;BME280;55400;51.824;-0.196;2023-02-07T01:57:50;102889.66;;;0.81;68.55
68145;BME280;55400;51.824;-0.196;2023-02-07T02:01:50;102889.66;;;0.79;68.55
68145;BME280;55400;51.824;-0.196;2023-02-07T02:05:51;102886.67;;;0.80;68.57
68145;BME280;55400;51.824;-0.196;2023-02-07T02:09:50;102880.24;;;0.78;68.64
68145;BME280;55400;51.824;-0.196;2023-02-07T02:13:53;102880.24;;;0.76;68.59
68145;BME280;55400;51.824;-0.196;2023-02-07T02:17:55;102879.05;;;0.70;68.58
68145;BME280;55400;51.824;-0.196;2023-02-07T02:21:57;102879.05;;;0.65;68.58
68145;BME280;55400;51.824;-0.196;2023-02-07T02:25:58;102873.95;;;0.60;68.65
68145;BME280;55400;51.824;-0.196;2023-02-07T02:33:51;102873.47;;;0.54;68.81
68145;BME280;55400;51.824;-0.196;2023-02-07T02:37:51;102867.22;;;0.51;68.87
68145;BME280;55400;51.824;-0.196;2023-02-07T02:41:52;102867.22;;;0.47;68.87
68145;BME280;55400;51.824;-0.196;2023-02-07T02:45:52;102876.21999999999;;;0.45;69.05
68145;BME280;55400;51.824;-0.196;2023-02-07T02:49:51;102884.56000000001;;;0.39;69.11
68145;BME280;55400;51.824;-0.196;2023-02-07T02:53:51;102878.48;;;0.31;69.11
68145;BME280;55400;51.824;-0.196;2023-02-07T02:57:53;102879.25;;;0.24;69.17
68145;BME280;55400;51.824;-0.196;2023-02-07T03:01:52;102877.81;;;0.18;69.22
68145;BME280;55400;51.824;-0.196;2023-02-07T03:05:52;102877.81;;;0.15;69.22
68145;BME280;55400;51.824;-0.196;2023-02-07T03:09:52;102866.31;;;0.11;69.28
68145;BME280;55400;51.824;-0.196;2023-02-07T03:17:52;102860.35999999999;;;0.13;69.30
68145;BME280;55400;51.824;-0.196;2023-02-07T03:21:51;102858.24;;;0.16;69.19
68145;BME280;55400;51.824;-0.196;2023-02-07T03:33:52;102854.61;;;0.13;69.15
68145;BME280;55400;51.824;-0.196;2023-02-07T03:37:52;102857.76000000001;;;0.11;69.17
68145;BME280;55400;51.824;-0.196;2023-02-07T03:41:51;102855.08;;;0.05;69.23
68145;BME280;55400;51.824;-0.196;2023-02-07T03:45:51;102851.56999999999;;;0.03;69.33
68145;BME280;55400;51.824;-0.196;2023-02-07T03:49:51;102862.5;;;0.00;69.35
68145;BME280;55400;51.824;-0.196;2023-02-07T03:53:51;102862.5;;;-0.04;69.35
68145;BME280;55400;51.824;-0.196;2023-02-07T03:57:51;102861.57;;;-0.09;69.41
68145;BME280;55400;51.824;-0.196;2023-02-07T04:01:51;102856.62999999999;;;-0.15;69.55
68145;BME280;55400;51.824;-0.196;2023-02-07T04:05:51;102859.83000000002;;;-0.17;69.64
68145;BME280;55400;51.824;-0.196;2023-02-07T04:09:51;102862.34999999999;;;-0.25;69.66
68145;BME280;55400;51.824;-0.196;2023-02-07T04:13:51;102858.37;;;-0.34;69.66
68145;BME280;55400;51.824;-0.196;2023-02-07T04:17:51;102861.94;;;-0.37;69.61
68145;BME280;55400;51.824;-0.196;2023-02-07T04:25:51;102861.18;;;-0.40;69.71
68145;BME280;55400;51.824;-0.196;2023-02-07T04:29:51;102854.54;;;-0.47;69.65
68145;BME280;55400;51.824;-0.196;2023-02-07T04:33:51;102854.54;;;-0.57;69.65
68145;BME280;55400;51.824;-0.196;2023-02-07T04:37:51;102851.51000000001;;;-0.65;69.78
68145;BME280;55400;51.824;-0.196;2023-02-07T04:41:51;102854.9;;;-0.70;69.96
68145;BME280;55400;51.824;-0.196;2023-02-07T04:45:51;102853.34;;;-0.68;69.92
68145;BME280;55400;51.824;-0.196;2023-02-07T04:49:51;102849.73;;;-0.67;70.02
68145;BME280;55400;51.824;-0.196;2023-02-07T04:57:51;102851.56;;;-0.68;69.84
68145;BME280;55400;51.824;-0.196;2023-02-07T05:05:51;102851.14000000001;;;-0.66;69.68
68145;BME280;55400;51.824;-0.196;2023-02-07T05:09:51;102851.14000000001;;;-0.69;69.64
68145;BME280;55400;51.824;-0.196;2023-02-07T05:13:51;102837.79;;;-0.76;69.53
68145;BME280;55400;51.824;-0.196;2023-02-07T05:17:51;102837.79;;;-0.82;69.64
68145;BME280;55400;51.824;-0.196;2023-02-07T05:21:51;102825.0;;;-0.85;69.81
68145;BME280;55400;51.824;-0.196;2023-02-07T05:25:51;102825.0;;;-0.86;69.99
68145;BME280;55400;51.824;-0.196;2023-02-07T05:29:51;102826.27;;;-0.89;70.00
68145;BME280;55400;51.824;-0.196;2023-02-07T05:33:51;102845.1;;;-0.94;70.01
68145;BME280;55400;51.824;-0.196;2023-02-07T05:37:51;102840.47;;;-0.97;70.13
68145;BME280;55400;51.824;-0.196;2023-02-07T05:41:51;102847.95;;;-1.01;70.28
68145;BME280;55400;51.824;-0.196;2023-02-07T05:45:51;102840.93000000001;;;-1.02;70.27
68145;BME280;55400;51.824;-0.196;2023-02-07T05:49:51;102851.9;;;-1.01;70.51
68145;BME280;55400;51.824;-0.196;2023-02-07T05:53:51;102854.64;;;-1.02;70.51
68145;BME280;55400;51.824;-0.196;2023-02-07T05:57:51;102850.27;;;-1.04;70.63
68145;BME280;55400;51.824;-0.196;2023-02-07T06:01:51;102845.52;;;-1.07;70.81
68145;BME280;55400;51.824;-0.196;2023-02-07T06:05:51;102842.76;;;-1.09;70.82
68145;BME280;55400;51.824;-0.196;2023-02-07T06:13:51;102848.75;;;-1.07;70.99
68145;BME280;55400;51.824;-0.196;2023-02-07T06:17:51;102855.07;;;-1.09;71.23
68145;BME280;55400;51.824;-0.196;2023-02-07T06:21:51;102857.7;;;-1.13;71.32
68145;BME280;55400;51.824;-0.196;2023-02-07T06:25:51;102855.64;;;-1.11;71.34
68145;BME280;55400;51.824;-0.196;2023-02-07T06:29:51;102862.70999999999;;;-1.13;72.00
68145;BME280;55400;51.824;-0.196;2023-02-07T06:33:51;102863.88999999998;;;-1.11;72.00
68145;BME280;55400;51.824;-0.196;2023-02-07T06:37:51;102870.56;;;-1.05;72.50
68145;BME280;55400;51.824;-0.196;2023-02-07T06:41:51;102865.06;;;-0.99;72.72
68145;BME280;55400;51.824;-0.196;2023-02-07T06:45:51;102877.0;;;-0.96;72.79
68145;BME280;55400;51.824;-0.196;2023-02-07T06:49:51;102874.07;;;-0.97;73.10
68145;BME280;55400;51.824;-0.196;2023-02-07T06:53:51;102874.07;;;-0.96;73.38
68145;BME280;55400;51.824;-0.196;2023-02-07T06:57:51;102876.14000000001;;;-0.90;73.65
68145;BME280;55400;51.824;-0.196;2023-02-07T07:01:51;102872.48999999999;;;-0.84;73.74
68145;BME280;55400;51.824;-0.196;2023-02-07T07:05:51;102872.48999999999;;;-0.79;73.74
68145;BME280;55400;51.824;-0.196;2023-02-07T07:09:51;102878.34;;;-0.74;73.78
68145;BME280;55400;51.824;-0.196;2023-02-07T07:13:51;102874.17;;;-0.68;73.95
68145;BME280;55400;51.824;-0.196;2023-02-07T07:17:51;102874.17;;;-0.62;73.97
68145;BME280;55400;51.824;-0.196;2023-02-07T07:21:51;102886.02;;;-0.56;73.93
68145;BME280;55400;51.824;-0.196;2023-02-07T07:25:52;102887.38;;;-0.50;73.87
68145;BME280;55400;51.824;-0.196;2023-02-07T07:29:51;102887.38;;;-0.47;73.75
68145;BME280;55400;51.824;-0.196;2023-02-07T07:33:52;102895.68999999999;;;-0.42;73.97
68145;BME280;55400;51.824;-0.196;2023-02-07T07:37:51;102895.53000000001;;;-0.41;73.97
68145;BME280;55400;51.824;-0.196;2023-02-07T07:45:52;102896.84;;;-0.38;74.08
68145;BME280;55400;51.824;-0.196;2023-02-07T07:49:51;102899.37;;;-0.37;74.08
68145;BME280;55400;51.824;-0.196;2023-02-07T07:53:51;102899.37;;;-0.38;74.07
68145;BME280;55400;51.824;-0.196;2023-02-07T07:57:51;102900.51000000001;;;-0.35;73.98
68145;BME280;55400;51.824;-0.196;2023-02-07T08:09:51;102921.13999999998;;;-0.34;74.67
68145;BME280;55400;51.824;-0.196;2023-02-07T08:13:51;102917.3;;;-0.30;74.76
68145;BME280;55400;51.824;-0.196;2023-02-07T08:17:52;102919.03;;;-0.26;74.81
68145;BME280;55400;51.824;-0.196;2023-02-07T08:21:51;102919.03;;;-0.21;74.81
68145;BME280;55400;51.824;-0.196;2023-02-07T08:25:52;102925.35;;;-0.15;74.88
68145;BME280;55400;51.824;-0.196;2023-02-07T08:29:51;102923.31999999999;;;-0.10;74.92
68145;BME280;55400;51.824;-0.196;2023-02-07T08:33:52;102919.89000000001;;;-0.09;74.92
68145;BME280;55400;51.824;-0.196;2023-02-07T08:37:52;102925.24;;;-0.06;74.90
68145;BME280;55400;51.824;-0.196;2023-02-07T08:41:52;102920.0;;;0.02;75.10
68145;BME280;55400;51.824;-0.196;2023-02-07T08:45:51;102926.20999999999;;;0.10;75.18
68145;BME280;55400;51.824;-0.196;2023-02-07T08:49:52;102925.48999999999;;;0.11;75.25
68145;BME280;55400;51.824;-0.196;2023-02-07T08:53:52;102927.06000000001;;;0.13;75.39
68145;BME280;55400;51.824;-0.196;2023-02-07T08:57:52;102923.39;;;0.18;76.13
68145;BME280;55400;51.824;-0.196;2023-02-07T09:01:52;102912.85;;;0.35;76.13
68145;BME280;55400;51.824;-0.196;2023-02-07T09:05:55;102914.11;;;0.56;75.96
68145;BME280;55400;51.824;-0.196;2023-02-07T09:09:52;102914.11;;;0.73;75.96
68145;BME280;55400;51.824;-0.196;2023-02-07T09:13:52;102915.11;;;0.87;75.61
68145;BME280;55400;51.824;-0.196;2023-02-07T09:17:52;102914.59;;;0.97;75.37
68145;BME280;55400;51.824;-0.196;2023-02-07T09:21:52;102918.51;;;1.02;75.37
68145;BME280;55400;51.824;-0.196;2023-02-07T09:25:52;102921.59;;;1.10;75.33
68145;BME280;55400;51.824;-0.196;2023-02-07T09:29:52;102922.17000000001;;;1.15;75.35
68145;BME280;55400;51.824;-0.196;2023-02-07T09:37:52;102918.59;;;1.18;75.51
68145;BME280;55400;51.824;-0.196;2023-02-07T09:41:54;102922.02;;;1.22;75.62
68145;BME280;55400;51.824;-0.196;2023-02-07T09:45:53;102923.03;;;1.26;75.66
68145;BME280;55400;51.824;-0.196;2023-02-07T09:49:53;102928.37;;;1.27;75.65
68145;BME280;55400;51.824;-0.196;2023-02-07T09:53:52;102930.58000000002;;;1.30;75.67
68145;BME280;55400;51.824;-0.196;2023-02-07T09:57:52;102930.47999999998;;;1.36;75.87
68145;BME280;55400;51.824;-0.196;2023-02-07T10:01:52;102932.58;;;1.42;75.76
68145;BME280;55400;51.824;-0.196;2023-02-07T10:05:54;102934.34;;;1.43;75.86
68145;BME280;55400;51.824;-0.196;2023-02-07T10:09:52;102938.43;;;1.49;75.91
68145;BME280;55400;51.824;-0.196;2023-02-07T10:13:59;102938.09000000001;;;1.51;75.91
68145;BME280;55400;51.824;-0.196;2023-02-07T10:17:56;102938.09000000001;;;1.54;75.97
68145;BME280;55400;51.824;-0.196;2023-02-07T10:21:55;102931.65;;;1.56;76.06
68145;BME280;55400;51.824;-0.196;2023-02-07T10:25:56;102945.35;;;1.61;76.28
68145;BME280;55400;51.824;-0.196;2023-02-07T10:29:53;102950.62000000001;;;1.66;76.43
68145;BME280;55400;51.824;-0.196;2023-02-07T10:33:53;102950.62000000001;;;1.72;76.55
68145;BME280;55400;51.824;-0.196;2023-02-07T10:37:52;102946.08;;;1.77;76.62
68145;BME280;55400;51.824;-0.196;2023-02-07T10:41:52;102946.08;;;1.84;76.69
68145;BME280;55400;51.824;-0.196;2023-02-07T10:45:52;102946.12999999999;;;1.92;76.80
68145;BME280;55400;51.824;-0.196;2023-02-07T10:49:52;102950.71;;;2.01;76.98
68145;BME280;55400;51.824;-0.196;2023-02-07T10:54:00;102948.95;;;2.11;76.98
68145;BME280;55400;51.824;-0.196;2023-02-07T10:57:52;102951.34000000001;;;2.19;77.16
68145;BME280;55400;51.824;-0.196;2023-02-07T11:01:52;102950.59000000001;;;2.26;77.20
68145;BME280;55400;51.824;-0.196;2023-02-07T11:05:53;102950.59000000001;;;2.32;77.32
68145;BME280;55400;51.824;-0.196;2023-02-07T11:09:53;102961.17;;;2.41;77.55
68145;BME280;55400;51.824;-0.196;2023-02-07T11:13:52;102958.06999999999;;;2.48;77.82
68145;BME280;55400;51.824;-0.196;2023-02-07T11:17:53;102958.06999999999;;;2.54;77.77
68145;BME280;55400;51.824;-0.196;2023-02-07T11:22:07;102956.59000000001;;;2.58;77.89
68145;BME280;55400;51.824;-0.196;2023-02-07T11:25:52;102950.72;;;2.61;77.89
68145;BME280;55400;51.824;-0.196;2023-02-07T11:29:52;102956.52;;;2.65;77.89
68145;BME280;55400;51.824;-0.196;2023-02-07T11:33:52;102949.16;;;2.63;77.90
68145;BME280;55400;51.824;-0.196;2023-02-07T11:37:57;102949.16;;;2.61;77.93
68145;BME280;55400;51.824;-0.196;2023-02-07T11:41:53;102945.61000000002;;;2.70;78.01
68145;BME280;55400;51.824;-0.196;2023-02-07T11:45:53;102945.61000000002;;;2.81;78.23
68145;BME280;55400;51.824;-0.196;2023-02-07T11:49:53;102938.64000000001;;;2.85;78.27
68145;BME280;55400;51.824;-0.196;2023-02-07T11:53:53;102929.96;;;2.90;78.27
68145;BME280;55400;51.824;-0.196;2023-02-07T11:57:53;102912.57;;;2.94;78.14
68145;BME280;55400;51.824;-0.196;2023-02-07T12:01:53;102912.57;;;2.97;77.99
68145;BME280;55400;51.824;-0.196;2023-02-07T12:05:53;102904.82999999999;;;3.00;78.08
68145;BME280;55400;51.824;-0.196;2023-02-07T12:09:52;102904.6;;;3.06;78.33
68145;BME280;55400;51.824;-0.196;2023-02-07T12:13:53;102898.4;;;3.11;78.33
68145;BME280;55400;51.824;-0.196;2023-02-07T12:17:55;102893.15;;;3.16;78.24
68145;BME280;55400;51.824;-0.196;2023-02-07T12:21:54;102894.98000000001;;;3.20;78.17
68145;BME280;55400;51.824;-0.196;2023-02-07T12:25:53;102894.98000000001;;;3.24;78.17
68145;BME280;55400;51.824;-0.196;2023-02-07T12:29:54;102887.44999999998;;;3.30;78.19
68145;BME280;55400;51.824;-0.196;2023-02-07T12:33:54;102889.42;;;3.33;78.44
68145;BME280;55400;51.824;-0.196;2023-02-07T12:37:55;102883.90999999999;;;3.36;78.44
68145;BME280;55400;51.824;-0.196;2023-02-07T12:41:52;102878.63;;;3.43;78.32
68145;BME280;55400;51.824;-0.196;2023-02-07T12:45:56;102877.09999999999;;;3.51;78.16
68145;BME280;55400;51.824;-0.196;2023-02-07T12:49:57;102878.38999999998;;;3.57;78.31
68145;BME280;55400;51.824;-0.196;2023-02-07T12:53:56;102868.59;;;3.68;77.82
68145;BME280;55400;51.824;-0.196;2023-02-07T12:57:56;102865.32999999999;;;3.81;76.71
68145;BME280;55400;51.824;-0.196;2023-02-07T13:01:55;102861.71999999999;;;3.91;76.18
68145;BME280;55400;51.824;-0.196;2023-02-07T13:05:55;102857.08;;;3.98;76.18
68145;BME280;55400;51.824;-0.196;2023-02-07T13:09:54;102857.08;;;4.04;75.73
68145;BME280;55400;51.824;-0.196;2023-02-07T13:13:55;102854.97;;;4.15;75.56
68145;BME280;55400;51.824;-0.196;2023-02-07T13:17:53;102847.61000000002;;;4.24;75.18
68145;BME280;55400;51.824;-0.196;2023-02-07T13:21:53;102849.96;;;4.30;74.46
68145;BME280;55400;51.824;-0.196;2023-02-07T13:25:53;102847.91;;;4.33;73.14
68145;BME280;55400;51.824;-0.196;2023-02-07T13:29:52;102842.48;;;4.41;72.94
68145;BME280;55400;51.824;-0.196;2023-02-07T13:33:52;102839.11;;;4.46;72.35
68145;BME280;55400;51.824;-0.196;2023-02-07T13:37:54;102834.12000000001;;;4.50;71.61
68145;BME280;55400;51.824;-0.196;2023-02-07T13:41:57;102831.62999999999;;;4.56;71.61
68145;BME280;55400;51.824;-0.196;2023-02-07T13:45:53;102826.79000000001;;;4.59;71.71
68145;BME280;55400;51.824;-0.196;2023-02-07T13:49:53;102824.31999999999;;;4.66;71.71
68145;BME280;55400;51.824;-0.196;2023-02-07T13:53:54;102820.15;;;4.75;71.65
68145;BME280;55400;51.824;-0.196;2023-02-07T13:57:53;102824.62000000001;;;4.82;71.58
68145;BME280;55400;51.824;-0.196;2023-02-07T14:01:53;102824.31999999999;;;4.88;70.48
68145;BME280;55400;51.824;-0.196;2023-02-07T14:05:54;102824.31999999999;;;4.94;70.48
68145;BME280;55400;51.824;-0.196;2023-02-07T14:09:52;102816.28;;;4.98;69.81
68145;BME280;55400;51.824;-0.196;2023-02-07T14:14:01;102804.59000000001;;;5.03;69.53
68145;BME280;55400;51.824;-0.196;2023-02-07T14:17:56;102810.17;;;5.08;69.53
68145;BME280;55400;51.824;-0.196;2023-02-07T14:21:55;102810.17;;;5.13;69.49
68145;BME280;55400;51.824;-0.196;2023-02-07T14:25:52;102820.97000000002;;;5.16;69.30
68145;BME280;55400;51.824;-0.196;2023-02-07T14:29:54;102814.45000000001;;;5.20;69.51
68145;BME280;55400;51.824;-0.196;2023-02-07T14:37:53;102823.34000000001;;;5.31;69.12
68145;BME280;55400;51.824;-0.196;2023-02-07T14:41:52;102823.34000000001;;;5.34;68.78
68145;BME280;55400;51.824;-0.196;2023-02-07T14:46:02;102809.69;;;5.35;67.66
68145;BME280;55400;51.824;-0.196;2023-02-07T14:49:53;102817.60999999999;;;5.37;67.66
68145;BME280;55400;51.824;-0.196;2023-02-07T14:53:56;102824.0;;;5.43;67.94
68145;BME280;55400;51.824;-0.196;2023-02-07T14:57:53;102816.86;;;5.50;68.15
68145;BME280;55400;51.824;-0.196;2023-02-07T15:01:52;102819.2;;;5.54;67.85
68145;BME280;55400;51.824;-0.196;2023-02-07T15:05:53;102818.58;;;5.59;67.85
68145;BME280;55400;51.824;-0.196;2023-02-07T15:09:53;102818.58;;;5.62;67.69
68145;BME280;55400;51.824;-0.196;2023-02-07T15:13:53;102818.23;;;5.69;66.47
68145;BME280;55400;51.824;-0.196;2023-02-07T15:17:53;102809.24;;;5.74;67.02
68145;BME280;55400;51.824;-0.196;2023-02-07T15:21:52;102809.24;;;5.77;67.02
68145;BME280;55400;51.824;-0.196;2023-02-07T15:25:53;102811.55000000002;;;5.82;67.09
68145;BME280;55400;51.824;-0.196;2023-02-07T15:29:53;102811.78;;;5.85;66.65
68145;BME280;55400;51.824;-0.196;2023-02-07T15:33:54;102810.34;;;5.90;66.09
68145;BME280;55400;51.824;-0.196;2023-02-07T15:37:53;102810.34;;;6.00;65.96
68145;BME280;55400;51.824;-0.196;2023-02-07T15:41:54;102798.90000000001;;;6.10;65.70
68145;BME280;55400;51.824;-0.196;2023-02-07T15:46:02;102798.08;;;6.18;65.70
68145;BME280;55400;51.824;-0.196;2023-02-07T15:49:56;102800.21999999999;;;6.27;65.37
68145;BME280;55400;51.824;-0.196;2023-02-07T15:53:54;102800.21999999999;;;6.36;65.18
68145;BME280;55400;51.824;-0.196;2023-02-07T15:57:53;102798.67;;;6.44;65.01
68145;BME280;55400;51.824;-0.196;2023-02-07T16:01:54;102795.84999999999;;;6.50;64.77
68145;BME280;55400;51.824;-0.196;2023-02-07T16:05:56;102795.84999999999;;;6.55;64.23
68145;BME280;55400;51.824;-0.196;2023-02-07T16:09:53;102795.64;;;6.60;64.17
68145;BME280;55400;51.824;-0.196;2023-02-07T16:13:53;102789.83;;;6.73;64.37
68145;BME280;55400;51.824;-0.196;2023-02-07T16:17:53;102798.54000000001;;;6.92;63.97
68145;BME280;55400;51.824;-0.196;2023-02-07T16:21:56;102798.54000000001;;;7.13;63.97
68145;BME280;55400;51.824;-0.196;2023-02-07T16:25:53;102798.97;;;7.28;63.66
68145;BME280;55400;51.824;-0.196;2023-02-07T16:29:53;102798.88;;;7.41;62.90
68145;BME280;55400;51.824;-0.196;2023-02-07T16:33:53;102798.88;;;7.47;62.90
68145;BME280;55400;51.824;-0.196;2023-02-07T16:37:53;102797.40999999999;;;7.51;62.68
68145;BME280;55400;51.824;-0.196;2023-02-07T16:41:54;102792.29000000001;;;7.49;62.52
68145;BME280;55400;51.824;-0.196;2023-02-07T16:45:53;102792.29000000001;;;7.33;62.47
68145;BME280;55400;51.824;-0.196;2023-02-07T16:49:53;102804.81999999999;;;7.08;63.07
68145;BME280;55400;51.824;-0.196;2023-02-07T16:53:53;102805.96;;;6.86;63.07
68145;BME280;55400;51.824;-0.196;2023-02-07T16:57:53;102803.19;;;6.65;63.95
68145;BME280;55400;51.824;-0.196;2023-02-07T17:01:53;102803.19;;;6.47;63.95
68145;BME280;55400;51.824;-0.196;2023-02-07T17:05:53;102805.08;;;6.29;64.26
68145;BME280;55400;51.824;-0.196;2023-02-07T17:09:53;102810.6;;;6.12;64.74
68145;BME280;55400;51.824;-0.196;2023-02-07T17:13:53;102810.71999999999;;;5.97;65.03
68145;BME280;55400;51.824;-0.196;2023-02-07T17:17:55;102821.52;;;5.80;65.03
68145;BME280;55400;51.824;-0.196;2023-02-07T17:21:53;102821.0;;;5.56;65.51
68145;BME280;55400;51.824;-0.196;2023-02-07T17:25:53;102831.01;;;5.36;65.91
68145;BME280;55400;51.824;-0.196;2023-02-07T17:29:53;102826.29;;;5.18;65.91
68145;BME280;55400;51.824;-0.196;2023-02-07T17:33:53;102832.93000000001;;;5.02;66.19
68145;BME280;55400;51.824;-0.196;2023-02-07T17:37:53;102832.93000000001;;;4.87;66.34
68145;BME280;55400;51.824;-0.196;2023-02-07T17:41:53;102833.72;;;4.75;66.51
68145;BME280;55400;51.824;-0.196;2023-02-07T17:45:53;102844.41999999998;;;4.63;66.83
68145;BME280;55400;51.824;-0.196;2023-02-07T17:49:53;102845.46;;;4.53;66.83
68145;BME280;55400;51.824;-0.196;2023-02-07T17:53:53;102850.93999999999;;;4.40;66.82
68145;BME280;55400;51.824;-0.196;2023-02-07T17:57:53;102852.38999999998;;;4.30;67.05
68145;BME280;55400;51.824;-0.196;2023-02-07T18:01:53;102852.38999999998;;;4.22;67.05
68145;BME280;55400;51.824;-0.196;2023-02-07T18:05:53;102852.34;;;4.15;67.19
68145;BME280;55400;51.824;-0.196;2023-02-07T18:09:53;102850.45999999999;;;4.08;67.28
68145;BME280;55400;51.824;-0.196;2023-02-07T18:13:53;102844.36;;;4.00;67.45
68145;BME280;55400;51.824;-0.196;2023-02-07T18:17:53;102849.15000000001;;;3.92;67.43
68145;BME280;55400;51.824;-0.196;2023-02-07T18:21:53;102849.4;;;3.84;67.47
68145;BME280;55400;51.824;-0.196;2023-02-07T18:25:53;102838.9;;;3.78;67.68
68145;BME280;55400;51.824;-0.196;2023-02-07T18:29:53;102838.9;;;3.69;67.68
68145;BME280;55400;51.824;-0.196;2023-02-07T18:33:53;102829.06;;;3.61;67.70
68145;BME280;55400;51.824;-0.196;2023-02-07T18:37:53;102834.18999999999;;;3.50;67.83
68145;BME280;55400;51.824;-0.196;2023-02-07T18:41:53;102829.61;;;3.40;68.00
68145;BME280;55400;51.824;-0.196;2023-02-07T18:45:53;102831.70999999999;;;3.31;68.27
68145;BME280;55400;51.824;-0.196;2023-02-07T18:49:53;102831.70999999999;;;3.23;68.27
68145;BME280;55400;51.824;-0.196;2023-02-07T18:53:53;102838.23;;;3.17;68.31
68145;BME280;55400;51.824;-0.196;2023-02-07T18:57:53;102841.22;;;3.09;68.34
68145;BME280;55400;51.824;-0.196;2023-02-07T19:01:53;102838.62;;;3.05;68.51
68145;BME280;55400;51.824;-0.196;2023-02-07T19:05:55;102838.92000000001;;;2.96;68.58
68145;BME280;55400;51.824;-0.196;2023-02-07T19:09:53;102838.22;;;2.92;68.54
68145;BME280;55400;51.824;-0.196;2023-02-07T19:13:54;102835.69;;;2.97;68.75
68145;BME280;55400;51.824;-0.196;2023-02-07T19:17:54;102836.94;;;3.09;68.73
68145;BME280;55400;51.824;-0.196;2023-02-07T19:21:53;102836.94;;;3.18;68.30
68145;BME280;55400;51.824;-0.196;2023-02-07T19:25:54;102841.24999999999;;;3.28;68.03
68145;BME280;55400;51.824;-0.196;2023-02-07T19:29:53;102841.06;;;3.33;67.80
68145;BME280;55400;51.824;-0.196;2023-02-07T19:33:54;102841.59;;;3.30;67.54
68145;BME280;55400;51.824;-0.196;2023-02-07T19:41:53;102836.43999999999;;;3.26;67.39
68145;BME280;55400;51.824;-0.196;2023-02-07T19:45:53;102842.4;;;3.14;67.22
68145;BME280;55400;51.824;-0.196;2023-02-07T19:49:53;102847.67;;;3.02;67.21
68145;BME280;55400;51.824;-0.196;2023-02-07T19:53:54;102847.67;;;2.88;67.27
68145;BME280;55400;51.824;-0.196;2023-02-07T19:57:53;102855.09;;;2.83;67.55
68145;BME280;55400;51.824;-0.196;2023-02-07T20:01:53;102852.19;;;2.78;67.75
68145;BME280;55400;51.824;-0.196;2023-02-07T20:05:54;102843.12;;;2.72;67.75
68145;BME280;55400;51.824;-0.196;2023-02-07T20:09:53;102843.12;;;2.68;67.69
68145;BME280;55400;51.824;-0.196;2023-02-07T20:13:55;102847.92;;;2.52;67.89
68145;BME280;55400;51.824;-0.196;2023-02-07T20:17:53;102848.19;;;2.34;68.02
68145;BME280;55400;51.824;-0.196;2023-02-07T20:21:53;102848.19;;;2.24;68.44
68145;BME280;55400;51.824;-0.196;2023-02-07T20:25:53;102841.43;;;2.13;68.97
68145;BME280;55400;51.824;-0.196;2023-02-07T20:29:53;102846.31;;;2.09;68.97
68145;BME280;55400;51.824;-0.196;2023-02-07T20:33:53;102838.5;;;2.19;69.27
68145;BME280;55400;51.824;-0.196;2023-02-07T20:37:54;102840.39;;;2.34;69.09
68145;BME280;55400;51.824;-0.196;2023-02-07T20:41:53;102845.68;;;2.45;68.32
68145;BME280;55400;51.824;-0.196;2023-02-07T20:46:01;102845.68;;;2.58;68.32
68145;BME280;55400;51.824;-0.196;2023-02-07T20:49:53;102841.92;;;2.61;68.00
68145;BME280;55400;51.824;-0.196;2023-02-07T20:53:54;102846.19;;;2.60;67.72
68145;BME280;55400;51.824;-0.196;2023-02-07T20:57:53;102841.5;;;2.56;67.72